Time;durP1;ratioP1;P1;durP2;ratioP2;P2;SDS_P1;SDS_P2;PMS_P1;PMS_P2;Temp;Humidity;BMP_temperature;BMP_pressure;BME280_temperature;BME280_humidity;BME280_pressure;Samples;Min_cycle;Max_cycle;Signal;HPM_P1;HPM_P2
2021/11/13 00:00:06;;;;;;;26.00;3.85;;;13.30;99.90;;;;;;5050760;28;20489;-82
2021/11/13 00:02:32;;;;;;;20.13;3.35;;;13.30;99.90;;;;;;5052068;28;20091;-82
2021/11/13 00:04:57;;;;;;;19.27;3.20;;;13.30;99.90;;;;;;5055175;28;20032;-82
2021/11/13 00:07:23;;;;;;;17.70;2.63;;;13.30;99.90;;;;;;5053377;28;20530;-81
2021/11/13 00:09:49;;;;;;;15.45;3.63;;;13.30;99.90;;;;;;5069451;28;20036;-84
2021/11/13 00:12:15;;;;;;;22.17;7.85;;;13.30;99.90;;;;;;5050046;28;20025;-82
2021/11/13 00:14:44;;;;;;;35.25;13.30;;;13.30;99.90;;;;;;5053880;28;20458;-82
2021/11/13 00:17:11;;;;;;;30.73;11.63;;;13.40;99.90;;;;;;5052819;28;20025;-82
2021/11/13 00:19:36;;;;;;;14.52;4.57;;;13.40;99.90;;;;;;5054839;28;20119;-82
2021/11/13 00:22:02;;;;;;;30.08;8.00;;;13.40;99.90;;;;;;5054137;28;20095;-82
2021/11/13 00:24:28;;;;;;;22.73;8.35;;;13.40;99.90;;;;;;5055344;28;20037;-83
2021/11/13 00:26:55;;;;;;;24.13;10.80;;;13.40;99.90;;;;;;5051896;28;20028;-82
2021/11/13 00:29:21;;;;;;;21.92;9.48;;;13.40;99.90;;;;;;5052364;28;20048;-83
2021/11/13 00:31:47;;;;;;;23.05;9.50;;;13.40;99.90;;;;;;5053906;28;20221;-82
2021/11/13 00:34:13;;;;;;;22.67;9.38;;;13.40;99.90;;;;;;5055278;28;20057;-82
2021/11/13 00:36:38;;;;;;;25.70;9.45;;;13.40;99.90;;;;;;5053799;28;20021;-82
2021/11/13 00:39:04;;;;;;;22.00;8.73;;;13.40;99.90;;;;;;5052155;28;20029;-82
2021/11/13 00:41:30;;;;;;;16.00;5.53;;;13.40;99.90;;;;;;5055163;28;20379;-82
2021/11/13 00:43:55;;;;;;;25.40;9.15;;;13.50;99.90;;;;;;5053387;28;20024;-82
2021/11/13 00:46:21;;;;;;;17.90;3.75;;;13.50;99.90;;;;;;5051593;28;20461;-82
2021/11/13 00:48:47;;;;;;;18.85;6.15;;;13.40;99.90;;;;;;5053691;28;20104;-82
2021/11/13 00:51:12;;;;;;;23.50;6.25;;;13.40;99.90;;;;;;5053548;28;20093;-82
2021/11/13 00:53:38;;;;;;;24.77;4.95;;;13.30;99.90;;;;;;5053314;28;20116;-82
2021/11/13 00:56:04;;;;;;;26.83;4.22;;;13.30;99.90;;;;;;5054776;28;20017;-82
2021/11/13 00:58:30;;;;;;;29.23;5.15;;;13.20;99.90;;;;;;5054084;28;20024;-82
2021/11/13 01:00:57;;;;;;;30.45;6.95;;;13.20;99.90;;;;;;5053147;28;20057;-82
2021/11/13 01:03:23;;;;;;;35.60;9.27;;;13.20;99.90;;;;;;5052171;28;20049;-82
2021/11/13 01:05:49;;;;;;;35.08;10.13;;;13.20;99.90;;;;;;5055095;28;20033;-82
2021/11/13 01:08:14;;;;;;;42.28;12.93;;;13.20;99.90;;;;;;5051643;28;20039;-83
2021/11/13 01:10:41;;;;;;;46.70;15.25;;;13.20;99.90;;;;;;5053825;28;20060;-82
2021/11/13 01:13:07;;;;;;;47.63;16.63;;;13.20;99.90;;;;;;5053279;28;20386;-83
2021/11/13 01:15:33;;;;;;;52.45;18.77;;;13.20;99.90;;;;;;5035515;28;20029;-83
2021/11/13 01:17:58;;;;;;;48.00;17.05;;;13.20;99.90;;;;;;5051941;28;20076;-82
2021/11/13 01:20:29;;;;;;;50.13;20.27;;;13.20;99.90;;;;;;5054917;28;20154;-82
2021/11/13 01:22:54;;;;;;;65.15;21.15;;;13.30;99.90;;;;;;5053249;28;20024;-82
2021/11/13 01:25:20;;;;;;;52.80;22.52;;;13.20;99.90;;;;;;5053161;28;20036;-82
2021/11/13 01:27:46;;;;;;;47.35;21.63;;;13.30;99.90;;;;;;5053207;28;20025;-82
2021/11/13 01:30:14;;;;;;;45.85;19.92;;;13.30;99.90;;;;;;5053471;28;20043;-82
2021/11/13 01:32:41;;;;;;;51.25;17.67;;;13.30;99.90;;;;;;5053429;28;20021;-82
2021/11/13 01:35:08;;;;;;;32.97;12.13;;;13.30;99.90;;;;;;5052996;28;20036;-82
2021/11/13 01:37:34;;;;;;;34.65;10.10;;;13.30;99.90;;;;;;5054850;28;20044;-83
2021/11/13 01:40:02;;;;;;;42.45;12.25;;;13.40;99.90;;;;;;5053295;28;20029;-82
2021/11/13 01:42:31;;;;;;;36.08;10.68;;;13.30;99.90;;;;;;5054765;28;20052;-82
2021/11/13 01:44:57;;;;;;;46.35;14.20;;;13.40;99.90;;;;;;5051301;28;20049;-82
2021/11/13 01:47:23;;;;;;;41.72;17.08;;;13.40;99.90;;;;;;5051518;28;20527;-83
2021/11/13 01:49:49;;;;;;;53.65;21.08;;;13.40;99.90;;;;;;5054513;28;20052;-82
2021/11/13 01:52:16;;;;;;;50.38;20.80;;;13.40;99.90;;;;;;5056893;28;20321;-83
2021/11/13 01:54:43;;;;;;;42.67;18.77;;;13.40;99.90;;;;;;5059375;28;20025;-83
2021/11/13 01:57:12;;;;;;;43.08;14.23;;;13.40;99.90;;;;;;5059850;28;20021;-83
2021/11/13 01:59:39;;;;;;;34.70;10.35;;;13.40;99.90;;;;;;5074959;28;20389;-83
2021/11/13 02:02:06;;;;;;;32.42;9.10;;;13.40;99.90;;;;;;5059164;28;20032;-82
2021/11/13 02:04:32;;;;;;;34.30;6.80;;;13.40;99.90;;;;;;5061295;28;20033;-82
2021/11/13 02:06:58;;;;;;;33.00;6.88;;;13.40;99.90;;;;;;5058675;28;20147;-83
2021/11/13 02:09:26;;;;;;;31.92;4.97;;;13.40;99.90;;;;;;5059198;28;20021;-83
2021/11/13 02:11:53;;;;;;;36.70;4.78;;;13.40;99.90;;;;;;5059336;28;20028;-82
2021/11/13 02:14:19;;;;;;;36.00;4.80;;;13.30;99.90;;;;;;5060226;28;20028;-83
2021/11/13 02:16:45;;;;;;;36.28;5.65;;;13.30;99.90;;;;;;5058260;28;20021;-83
2021/11/13 02:19:11;;;;;;;33.05;5.25;;;13.30;99.90;;;;;;5056245;28;20017;-83
2021/11/13 02:21:37;;;;;;;30.08;5.45;;;13.30;99.90;;;;;;5057363;28;20482;-83
2021/11/13 02:24:03;;;;;;;31.10;5.47;;;13.30;99.90;;;;;;5058828;28;20033;-83
2021/11/13 02:26:28;;;;;;;31.52;5.75;;;13.30;99.90;;;;;;5054604;28;20037;-83
2021/11/13 02:28:55;;;;;;;37.22;5.40;;;13.30;99.90;;;;;;5052588;28;20017;-83
2021/11/13 02:31:36;;;;;;;39.03;5.18;;;13.30;99.90;;;;;;5067726;28;20519;-83
2021/11/13 02:34:04;;;;;;;35.15;6.15;;;13.30;99.90;;;;;;5057982;28;20039;-83
2021/11/13 02:36:31;;;;;;;39.53;6.43;;;13.30;99.90;;;;;;5052764;28;20021;-83
2021/11/13 02:38:58;;;;;;;38.58;5.18;;;13.20;99.90;;;;;;5055811;28;20057;-82
2021/11/13 02:41:27;;;;;;;30.80;5.63;;;13.20;99.90;;;;;;5057786;28;20032;-82
2021/11/13 02:43:54;;;;;;;41.08;5.30;;;13.20;99.90;;;;;;5053251;28;20044;-82
2021/11/13 02:46:21;;;;;;;38.35;5.63;;;13.20;99.90;;;;;;5053597;28;20033;-82
2021/11/13 02:48:48;;;;;;;39.72;6.25;;;13.10;99.90;;;;;;5055464;28;20017;-82
2021/11/13 02:51:14;;;;;;;34.63;5.53;;;13.10;99.90;;;;;;5053746;28;20054;-82
2021/11/13 02:53:43;;;;;;;40.50;6.00;;;13.10;99.90;;;;;;5055658;28;20096;-82
2021/11/13 02:56:10;;;;;;;39.70;5.60;;;13.00;99.90;;;;;;5037239;28;20517;-82
2021/11/13 02:58:37;;;;;;;44.30;6.28;;;13.00;99.90;;;;;;5056040;28;20021;-82
2021/11/13 03:01:20;;;;;;;47.58;7.63;;;13.00;99.90;;;;;;5053511;28;20159;-83
2021/11/13 03:03:52;;;;;;;46.92;7.28;;;13.00;99.90;;;;;;5071617;28;20028;-82
2021/11/13 03:06:18;;;;;;;38.50;6.65;;;13.00;99.90;;;;;;5055055;28;20378;-84
2021/11/13 03:08:46;;;;;;;57.15;7.78;;;13.00;99.90;;;;;;5055558;28;20024;-84
2021/11/13 03:11:14;;;;;;;48.75;6.97;;;13.00;99.90;;;;;;5055530;28;20053;-84
2021/11/13 03:13:42;;;;;;;46.47;6.60;;;13.10;99.90;;;;;;5056213;28;20017;-84
2021/11/13 03:16:10;;;;;;;55.25;7.43;;;13.10;99.90;;;;;;5055140;28;20369;-85
2021/11/13 03:18:36;;;;;;;32.45;6.53;;;13.10;99.90;;;;;;5059526;28;20031;-84
2021/11/13 03:21:05;;;;;;;46.58;6.38;;;13.20;99.90;;;;;;5062615;28;20049;-84
2021/11/13 03:23:37;;;;;;;38.65;6.25;;;13.10;99.90;;;;;;5062698;28;20017;-84
2021/11/13 03:26:15;;;;;;;38.85;7.32;;;13.10;99.90;;;;;;5061867;28;20041;-84
2021/11/13 03:28:45;;;;;;;38.83;5.53;;;13.10;99.90;;;;;;5062094;28;20071;-84
2021/11/13 03:31:10;;;;;;;47.13;5.82;;;13.00;99.90;;;;;;5062279;28;20067;-83
2021/11/13 03:33:39;;;;;;;39.97;6.10;;;13.00;99.90;;;;;;5062640;28;20288;-84
2021/11/13 03:36:06;;;;;;;33.58;5.53;;;12.90;99.90;;;;;;5062080;28;20156;-84
2021/11/13 03:38:33;;;;;;;58.67;8.35;;;12.90;99.90;;;;;;5062253;28;20047;-84
2021/11/13 03:40:59;;;;;;;42.08;7.45;;;12.90;99.90;;;;;;5060662;28;20104;-84
2021/11/13 03:43:25;;;;;;;36.10;7.60;;;12.80;99.90;;;;;;5062168;28;20032;-84
2021/11/13 03:45:51;;;;;;;42.83;6.47;;;12.80;99.90;;;;;;5062049;28;20244;-84
2021/11/13 03:48:18;;;;;;;48.05;7.68;;;12.80;99.90;;;;;;5061891;28;20343;-84
2021/11/13 03:50:45;;;;;;;39.00;6.00;;;12.80;99.90;;;;;;5062457;28;20079;-84
2021/11/13 03:53:10;;;;;;;35.22;6.15;;;12.80;99.90;;;;;;5056756;28;20485;-85
2021/11/13 03:55:36;;;;;;;38.78;5.13;;;12.80;99.90;;;;;;5055996;28;20063;-84
2021/11/13 03:58:03;;;;;;;39.50;6.15;;;12.80;99.90;;;;;;5054099;28;20032;-85
2021/11/13 04:00:29;;;;;;;38.80;6.68;;;12.80;99.90;;;;;;5055074;28;20248;-84
2021/11/13 04:02:55;;;;;;;52.42;6.65;;;12.90;99.90;;;;;;5069613;28;20021;-84
2021/11/13 04:05:21;;;;;;;37.00;6.32;;;12.90;99.90;;;;;;5054318;28;20059;-84
2021/11/13 04:07:50;;;;;;;44.45;6.60;;;12.90;99.90;;;;;;5053966;28;20393;-84
2021/11/13 04:10:17;;;;;;;43.15;7.18;;;12.90;99.90;;;;;;5053930;28;20551;-84
2021/11/13 04:12:44;;;;;;;38.45;6.43;;;12.90;99.90;;;;;;5053983;28;20015;-84
2021/11/13 04:15:12;;;;;;;30.65;5.18;;;13.00;99.90;;;;;;5052290;28;20529;-84
2021/11/13 04:17:39;;;;;;;34.45;6.65;;;13.10;99.90;;;;;;5051906;28;20596;-84
2021/11/13 04:20:07;;;;;;;45.40;8.02;;;13.10;99.90;;;;;;5053977;28;20028;-85
2021/11/13 04:22:33;;;;;;;40.55;5.90;;;13.00;99.90;;;;;;5050274;28;20053;-84
2021/11/13 04:24:59;;;;;;;39.75;6.88;;;13.10;99.90;;;;;;5052137;28;20061;-84
2021/11/13 04:27:25;;;;;;;41.45;6.80;;;13.10;99.90;;;;;;5053966;28;20025;-84
2021/11/13 04:29:50;;;;;;;37.40;6.45;;;13.00;99.90;;;;;;5052296;28;20570;-84
2021/11/13 04:32:16;;;;;;;38.08;6.70;;;13.10;99.90;;;;;;5055374;28;20040;-84
2021/11/13 04:37:18;;;;;;;29.17;5.68;;;13.00;99.90;;;;;;5054877;28;20381;-83
2021/11/13 04:39:46;;;;;;;34.65;6.28;;;13.00;99.90;;;;;;5053922;28;20036;-82
2021/11/13 04:42:12;;;;;;;30.85;5.65;;;13.00;99.90;;;;;;5054426;28;20025;-82
2021/11/13 04:44:39;;;;;;;47.22;7.20;;;13.00;99.90;;;;;;5053577;28;20132;-82
2021/11/13 04:47:05;;;;;;;45.13;7.47;;;13.00;99.90;;;;;;5053351;28;20028;-82
2021/11/13 04:49:31;;;;;;;43.03;6.70;;;12.90;99.90;;;;;;5053465;28;20029;-82
2021/11/13 04:51:58;;;;;;;36.60;6.35;;;12.90;99.90;;;;;;5053545;28;20089;-83
2021/11/13 04:54:23;;;;;;;37.28;5.95;;;13.00;99.90;;;;;;5055078;28;20013;-83
2021/11/13 04:56:50;;;;;;;42.83;6.63;;;13.00;99.90;;;;;;5053964;28;20036;-83
2021/11/13 04:59:16;;;;;;;39.60;6.28;;;13.10;99.90;;;;;;5053392;28;20066;-82
2021/11/13 05:01:42;;;;;;;32.45;6.40;;;13.00;99.90;;;;;;5052033;28;20072;-82
2021/11/13 05:04:08;;;;;;;38.35;6.18;;;13.10;99.90;;;;;;5053887;28;20103;-82
2021/11/13 05:06:34;;;;;;;40.22;6.57;;;13.00;99.90;;;;;;5051462;28;20055;-82
2021/11/13 05:09:00;;;;;;;44.10;7.45;;;13.10;99.90;;;;;;5053201;28;20088;-83
2021/11/13 05:11:25;;;;;;;39.83;7.50;;;13.10;99.90;;;;;;5053093;28;20036;-83
2021/11/13 05:13:52;;;;;;;40.40;6.57;;;13.10;99.90;;;;;;5051272;28;20385;-82
2021/11/13 05:16:17;;;;;;;41.15;6.65;;;13.10;99.90;;;;;;5052852;28;20370;-84
2021/11/13 05:18:43;;;;;;;46.03;7.57;;;13.20;99.90;;;;;;5054508;28;20029;-82
2021/11/13 05:21:09;;;;;;;35.40;5.38;;;13.20;99.90;;;;;;5053773;28;20037;-83
2021/11/13 05:23:36;;;;;;;37.50;7.22;;;13.30;99.90;;;;;;5054466;28;20056;-84
2021/11/13 05:26:02;;;;;;;40.15;6.38;;;13.30;99.90;;;;;;5054687;28;20045;-82
2021/11/13 05:28:28;;;;;;;35.10;6.68;;;13.30;99.90;;;;;;5056197;28;20114;-83
2021/11/13 05:30:54;;;;;;;30.50;6.32;;;13.40;99.90;;;;;;5057869;28;20321;-83
2021/11/13 05:33:20;;;;;;;33.13;5.22;;;13.40;99.90;;;;;;5056614;28;20020;-82
2021/11/13 05:35:46;;;;;;;38.85;6.65;;;13.40;99.90;;;;;;5057021;28;20076;-83
2021/11/13 05:38:12;;;;;;;36.72;5.80;;;13.30;99.90;;;;;;5057303;28;20043;-83
2021/11/13 05:40:37;;;;;;;33.17;5.60;;;13.30;99.90;;;;;;5058562;28;20029;-83
2021/11/13 05:43:03;;;;;;;52.83;7.22;;;13.20;99.90;;;;;;5056823;28;20028;-83
2021/11/13 05:45:29;;;;;;;44.45;7.50;;;13.20;99.90;;;;;;5056357;28;20049;-83
2021/11/13 05:47:55;;;;;;;32.05;6.00;;;13.10;99.90;;;;;;5055524;28;20140;-83
2021/11/13 05:50:21;;;;;;;37.15;6.68;;;13.10;99.90;;;;;;5054857;28;20075;-83
2021/11/13 05:52:48;;;;;;;33.97;6.10;;;13.10;99.90;;;;;;5063446;28;20025;-83
2021/11/13 05:55:15;;;;;;;38.33;6.90;;;13.00;99.90;;;;;;5063469;28;20025;-83
2021/11/13 05:57:42;;;;;;;46.92;7.28;;;13.10;99.90;;;;;;5063946;28;20021;-83
2021/11/13 06:00:13;;;;;;;42.22;6.63;;;13.10;99.90;;;;;;5064388;28;20021;-82
2021/11/13 06:02:40;;;;;;;33.30;6.43;;;13.10;99.90;;;;;;5063769;28;20021;-83
2021/11/13 06:05:06;;;;;;;39.83;6.47;;;13.10;99.90;;;;;;5064084;28;20033;-83
2021/11/13 06:07:33;;;;;;;41.67;6.57;;;13.10;99.90;;;;;;5063431;28;20013;-83
2021/11/13 06:09:59;;;;;;;37.47;6.20;;;13.10;99.90;;;;;;5064037;28;20039;-84
2021/11/13 06:12:25;;;;;;;33.05;6.88;;;13.10;99.90;;;;;;5064218;28;20040;-83
2021/11/13 06:14:50;;;;;;;31.30;5.80;;;13.20;99.90;;;;;;5063583;28;20071;-83
2021/11/13 06:17:16;;;;;;;28.83;6.57;;;13.10;99.90;;;;;;5062712;28;20336;-83
2021/11/13 06:19:43;;;;;;;28.95;5.82;;;13.10;99.90;;;;;;5079251;28;20055;-82
2021/11/13 06:22:09;;;;;;;32.13;6.55;;;13.10;99.90;;;;;;5075988;28;20094;-83
2021/11/13 06:24:35;;;;;;;40.15;6.32;;;13.10;99.90;;;;;;5055653;28;20526;-83
2021/11/13 06:27:01;;;;;;;35.72;6.63;;;13.10;99.90;;;;;;5052669;28;20025;-82
2021/11/13 06:29:27;;;;;;;45.05;7.45;;;13.10;99.90;;;;;;5057622;28;20036;-83
2021/11/13 06:31:53;;;;;;;35.83;6.10;;;13.10;99.90;;;;;;5056239;28;20044;-84
2021/11/13 06:34:19;;;;;;;38.08;6.40;;;13.10;99.90;;;;;;5055793;28;20021;-82
2021/11/13 06:36:45;;;;;;;43.13;6.43;;;13.20;99.90;;;;;;5055869;28;20100;-82
2021/11/13 06:39:10;;;;;;;31.10;5.53;;;13.10;99.90;;;;;;5054517;28;20029;-83
2021/11/13 06:41:36;;;;;;;42.20;6.22;;;13.10;99.90;;;;;;5057032;28;20021;-84
2021/11/13 06:44:02;;;;;;;54.28;7.32;;;13.20;99.90;;;;;;5051116;28;20112;-84
2021/11/13 06:46:27;;;;;;;43.80;7.10;;;13.20;99.90;;;;;;5052369;28;20307;-85
2021/11/13 06:48:53;;;;;;;46.47;8.48;;;13.20;99.90;;;;;;5052450;28;20031;-85
2021/11/13 06:51:20;;;;;;;51.10;7.90;;;13.20;99.90;;;;;;5052253;28;20029;-86
2021/11/13 06:53:45;;;;;;;47.75;7.10;;;13.20;99.90;;;;;;5033806;28;20389;-85
2021/11/13 06:56:11;;;;;;;56.55;8.40;;;13.20;99.90;;;;;;5051534;28;20025;-86
2021/11/13 06:58:37;;;;;;;49.72;6.82;;;13.20;99.90;;;;;;5051545;28;20100;-86
2021/11/13 07:01:04;;;;;;;50.20;7.10;;;13.30;99.90;;;;;;5048544;28;20457;-86
2021/11/13 07:03:30;;;;;;;39.40;6.03;;;13.30;99.90;;;;;;5028978;28;20145;-86
2021/11/13 07:05:56;;;;;;;36.53;6.78;;;13.30;99.90;;;;;;5049650;28;20164;-86
2021/11/13 07:08:22;;;;;;;45.22;7.10;;;13.30;99.90;;;;;;5049497;28;20017;-86
2021/11/13 07:10:52;;;;;;;40.80;6.80;;;13.30;99.90;;;;;;5050647;28;20021;-87
2021/11/13 07:13:19;;;;;;;34.78;5.70;;;13.30;99.90;;;;;;5047731;28;20099;-86
2021/11/13 07:15:45;;;;;;;33.38;5.20;;;13.30;99.90;;;;;;5051770;28;20043;-86
2021/11/13 07:18:11;;;;;;;35.03;4.60;;;13.40;99.90;;;;;;5048643;28;20016;-86
2021/11/13 07:20:36;;;;;;;35.03;5.07;;;13.40;99.90;;;;;;5051847;28;20470;-86
2021/11/13 07:23:04;;;;;;;30.38;4.13;;;13.40;99.90;;;;;;5052446;28;20045;-86
2021/11/13 07:25:29;;;;;;;28.00;5.07;;;13.40;99.90;;;;;;5053061;28;20032;-86
2021/11/13 07:28:02;;;;;;;29.63;6.20;;;13.40;99.90;;;;;;5053584;28;20044;-86
2021/11/13 07:30:38;;;;;;;32.53;4.22;;;13.40;99.90;;;;;;5053853;28;20029;-86
2021/11/13 07:33:04;;;;;;;24.17;3.67;;;13.30;99.90;;;;;;5055503;28;20021;-86
2021/11/13 07:35:29;;;;;;;33.63;5.03;;;13.30;99.90;;;;;;5052234;28;20033;-86
2021/11/13 07:37:56;;;;;;;27.40;5.13;;;13.40;99.90;;;;;;5035346;28;20021;-88
2021/11/13 07:40:22;;;;;;;29.20;4.72;;;13.40;99.90;;;;;;5058721;28;20050;-86
2021/11/13 07:42:47;;;;;;;24.85;3.92;;;13.40;99.90;;;;;;5075651;28;20025;-87
2021/11/13 07:45:13;;;;;;;27.23;4.65;;;13.40;99.90;;;;;;5053633;28;20044;-87
2021/11/13 07:47:41;;;;;;;32.05;4.78;;;13.40;99.90;;;;;;5073427;28;20047;-86
2021/11/13 07:50:11;;;;;;;35.80;5.40;;;13.40;99.90;;;;;;5070930;28;20500;-87
2021/11/13 07:52:37;;;;;;;33.65;5.25;;;13.30;99.90;;;;;;5053987;28;20055;-86
2021/11/13 07:55:03;;;;;;;45.53;7.95;;;13.10;99.90;;;;;;5051787;28;20064;-85
2021/11/13 07:57:29;;;;;;;45.60;8.75;;;13.00;99.90;;;;;;5051220;28;20470;-86
2021/11/13 07:59:55;;;;;;;59.03;7.10;;;12.90;99.90;;;;;;5051269;28;20100;-90
2021/11/13 08:02:21;;;;;;;41.63;7.78;;;13.00;99.90;;;;;;5050967;28;20512;-86
2021/11/13 08:04:47;;;;;;;40.78;6.53;;;12.90;99.90;;;;;;5049386;28;20033;-86
2021/11/13 08:07:12;;;;;;;51.60;6.60;;;12.90;99.90;;;;;;5049310;28;20181;-86
2021/11/13 08:09:38;;;;;;;45.65;6.00;;;12.90;99.90;;;;;;5049352;28;20028;-86
2021/11/13 08:12:04;;;;;;;40.97;4.78;;;12.90;99.90;;;;;;5060211;28;20073;-86
2021/11/13 08:14:29;;;;;;;35.38;4.65;;;12.90;99.90;;;;;;5069226;28;20021;-88
2021/11/13 08:16:55;;;;;;;27.63;3.65;;;12.80;99.90;;;;;;5069351;28;20505;-87
2021/11/13 08:19:21;;;;;;;25.90;4.18;;;12.90;99.90;;;;;;5070084;28;20527;-86
2021/11/13 08:21:47;;;;;;;39.42;6.90;;;12.90;99.90;;;;;;5070741;28;20490;-86
2021/11/13 08:24:12;;;;;;;32.83;5.35;;;13.00;99.90;;;;;;5070090;28;20040;-88
2021/11/13 08:26:38;;;;;;;42.78;6.22;;;13.00;99.90;;;;;;5069911;28;20043;-87
2021/11/13 08:29:04;;;;;;;28.38;5.88;;;13.10;99.90;;;;;;5051998;28;20027;-87
2021/11/13 08:31:30;;;;;;;32.97;5.97;;;13.10;99.90;;;;;;5051794;28;20041;-87
2021/11/13 08:33:55;;;;;;;32.47;6.53;;;13.10;99.90;;;;;;5069930;28;20056;-88
2021/11/13 08:36:22;;;;;;;42.08;7.57;;;13.20;99.90;;;;;;5051899;28;20082;-87
2021/11/13 08:38:47;;;;;;;34.22;6.18;;;13.30;99.90;;;;;;5070259;28;20031;-88
2021/11/13 08:41:13;;;;;;;31.05;5.50;;;13.40;99.90;;;;;;5070210;28;20020;-89
2021/11/13 08:43:39;;;;;;;35.67;5.18;;;13.50;99.90;;;;;;5070066;28;20429;-87
2021/11/13 08:46:05;;;;;;;35.00;5.03;;;13.50;99.90;;;;;;5069497;28;20303;-86
2021/11/13 08:48:31;;;;;;;38.72;6.05;;;13.40;99.90;;;;;;5051797;28;20516;-87
2021/11/13 08:50:56;;;;;;;39.47;5.57;;;13.50;99.90;;;;;;5069900;28;20339;-88
2021/11/13 08:53:22;;;;;;;32.38;5.60;;;13.70;99.90;;;;;;5070366;28;20537;-87
2021/11/13 08:55:48;;;;;;;41.47;5.45;;;13.70;99.90;;;;;;5070616;28;20035;-87
2021/11/13 08:58:14;;;;;;;31.48;5.55;;;13.80;99.90;;;;;;5070753;28;20243;-87
2021/11/13 09:00:39;;;;;;;28.60;6.63;;;13.80;99.90;;;;;;5071708;28;20036;-87
2021/11/13 09:03:10;;;;;;;32.58;5.65;;;13.90;99.90;;;;;;5077466;28;20149;-89
2021/11/13 09:05:36;;;;;;;40.92;6.43;;;13.80;99.90;;;;;;5068637;28;20199;-90
2021/11/13 09:08:02;;;;;;;37.28;5.63;;;13.80;99.90;;;;;;5051975;28;20056;-89
2021/11/13 09:10:29;;;;;;;32.25;5.25;;;13.70;99.90;;;;;;5036824;28;20064;-91
2021/11/13 09:12:56;;;;;;;31.58;5.25;;;13.70;99.90;;;;;;5055047;28;20032;-90
2021/11/13 09:15:28;;;;;;;38.58;5.50;;;13.70;99.90;;;;;;5039111;28;20029;-90
2021/11/13 09:17:55;;;;;;;32.83;4.93;;;13.60;99.90;;;;;;5036630;28;20432;-89
2021/11/13 09:20:22;;;;;;;43.13;6.53;;;13.40;99.90;;;;;;5054823;28;20146;-90
2021/11/13 09:22:48;;;;;;;36.00;7.18;;;13.40;99.90;;;;;;5036574;28;20033;-90
2021/11/13 09:25:15;;;;;;;34.53;6.55;;;13.40;99.90;;;;;;5052760;28;20060;-89
2021/11/13 09:27:44;;;;;;;35.70;6.10;;;13.40;99.90;;;;;;5035732;28;20028;-89
2021/11/13 09:30:20;;;;;;;36.13;5.40;;;13.40;99.90;;;;;;5036057;28;20021;-91
2021/11/13 09:32:47;;;;;;;46.10;6.97;;;13.40;99.90;;;;;;5035720;28;20477;-90
2021/11/13 09:35:14;;;;;;;44.25;6.15;;;13.50;99.90;;;;;;5035843;28;20029;-91
2021/11/13 09:37:40;;;;;;;44.40;6.18;;;13.60;99.90;;;;;;5035933;28;20028;-91
2021/11/13 09:40:07;;;;;;;40.65;6.05;;;13.60;99.90;;;;;;5036521;28;20497;-91
2021/11/13 09:42:33;;;;;;;46.88;6.32;;;13.70;99.90;;;;;;5036541;28;20089;-91
2021/11/13 09:44:59;;;;;;;34.80;5.40;;;13.80;99.90;;;;;;5035932;28;20041;-89
2021/11/13 09:47:25;;;;;;;39.28;7.88;;;13.90;99.90;;;;;;5036418;28;20040;-90
2021/11/13 09:49:53;;;;;;;46.65;8.05;;;13.90;99.90;;;;;;5036463;28;20017;-91
2021/11/13 09:52:19;;;;;;;38.83;6.65;;;14.00;99.90;;;;;;5054585;28;20025;-90
2021/11/13 09:54:45;;;;;;;43.65;6.18;;;14.10;99.90;;;;;;5035588;28;20017;-90
2021/11/13 09:57:12;;;;;;;40.03;6.03;;;14.10;99.90;;;;;;5053422;28;20496;-91
2021/11/13 09:59:38;;;;;;;40.25;6.32;;;14.20;99.90;;;;;;5050081;28;20029;-90
2021/11/13 10:02:04;;;;;;;34.70;6.25;;;14.20;99.90;;;;;;5039069;28;20094;-91
2021/11/13 10:04:30;;;;;;;34.97;5.65;;;14.30;99.90;;;;;;5053339;28;20508;-91
2021/11/13 10:06:57;;;;;;;33.63;6.55;;;14.40;99.90;;;;;;5053033;28;20509;-91
2021/11/13 10:09:30;;;;;;;33.38;5.93;;;14.60;99.90;;;;;;5036081;28;20482;-91
2021/11/13 10:11:56;;;;;;;35.90;8.13;;;14.70;99.90;;;;;;5036416;28;20017;-91
2021/11/13 10:14:32;;;;;;;30.42;5.55;;;14.70;99.90;;;;;;5035069;28;20029;-91
2021/11/13 10:16:59;;;;;;;40.05;5.50;;;14.70;99.90;;;;;;5052693;28;20033;-90
2021/11/13 10:19:27;;;;;;;30.27;7.45;;;14.70;99.90;;;;;;5035893;28;20485;-91
2021/11/13 10:21:59;;;;;;;30.40;5.82;;;14.90;99.90;;;;;;5035736;28;20033;-91
2021/11/13 10:24:28;;;;;;;27.05;5.13;;;15.00;99.90;;;;;;5035345;28;20017;-91
2021/11/13 10:27:05;;;;;;;35.38;4.85;;;15.00;99.90;;;;;;5052770;28;20045;-91
2021/11/13 10:29:37;;;;;;;30.05;4.65;;;14.90;99.90;;;;;;5034967;28;20049;-91
2021/11/13 10:32:07;;;;;;;34.45;5.90;;;15.00;99.90;;;;;;5034812;28;20033;-90
2021/11/13 10:34:36;;;;;;;23.83;4.40;;;14.90;99.90;;;;;;5034779;28;20115;-91
2021/11/13 10:37:09;;;;;;;26.58;4.35;;;14.90;99.90;;;;;;5034757;28;20482;-91
2021/11/13 10:39:37;;;;;;;31.17;5.03;;;14.90;99.90;;;;;;5035402;28;20033;-90
2021/11/13 10:42:18;;;;;;;28.70;4.82;;;15.00;99.90;;;;;;5035635;28;20025;-91
2021/11/13 10:44:46;;;;;;;29.88;4.75;;;14.90;99.90;;;;;;5035434;28;20041;-91
2021/11/13 10:47:31;;;;;;;32.20;5.28;;;14.90;99.90;;;;;;5053441;28;20064;-91
2021/11/13 10:50:15;;;;;;;35.50;6.10;;;14.80;99.90;;;;;;5053437;28;20253;-92
2021/11/13 10:52:41;;;;;;;33.70;6.40;;;14.70;99.90;;;;;;5053006;28;20074;-93
2021/11/13 10:55:18;;;;;;;36.78;5.30;;;14.80;99.90;;;;;;5036375;28;20263;-93
2021/11/13 10:57:44;;;;;;;26.05;3.90;;;15.00;99.90;;;;;;5036295;28;20021;-89
2021/11/13 11:00:15;;;;;;;21.00;3.53;;;15.10;99.90;;;;;;5035937;28;20029;-91
2021/11/13 11:02:41;;;;;;;26.70;5.00;;;15.00;99.90;;;;;;5036125;28;20096;-91
2021/11/13 11:05:15;;;;;;;29.77;3.95;;;14.90;99.90;;;;;;5053294;28;20589;-91
2021/11/13 11:07:41;;;;;;;26.77;4.25;;;14.80;99.90;;;;;;5053451;28;20029;-90
2021/11/13 11:10:09;;;;;;;23.80;4.10;;;14.70;99.90;;;;;;5053041;28;20033;-90
2021/11/13 11:12:37;;;;;;;20.17;3.78;;;14.90;99.90;;;;;;5034825;28;20071;-91
2021/11/13 11:15:15;;;;;;;23.02;4.65;;;15.00;99.90;;;;;;5037595;28;20362;-90
2021/11/13 11:17:42;;;;;;;26.98;4.90;;;15.10;99.90;;;;;;5035100;28;20108;-90
2021/11/13 11:20:14;;;;;;;19.33;4.32;;;15.20;99.90;;;;;;5052989;28;20021;-90
2021/11/13 11:22:41;;;;;;;26.55;5.40;;;15.40;99.90;;;;;;5052984;28;20067;-90
2021/11/13 11:25:11;;;;;;;28.30;4.50;;;15.40;99.90;;;;;;5051164;28;20037;-91
2021/11/13 11:27:43;;;;;;;21.67;4.05;;;15.30;99.90;;;;;;5033917;28;20108;-91
2021/11/13 11:30:30;;;;;;;24.13;4.18;;;15.10;99.90;;;;;;5033922;28;20078;-90
2021/11/13 11:32:58;;;;;;;17.92;3.38;;;14.90;99.90;;;;;;5051640;28;20017;-90
2021/11/13 11:35:39;;;;;;;18.88;3.35;;;14.90;99.90;;;;;;5033901;28;20493;-91
2021/11/13 11:38:10;;;;;;;19.70;2.97;;;15.00;99.90;;;;;;5051606;28;20066;-90
2021/11/13 11:40:47;;;;;;;25.00;4.85;;;14.90;99.90;;;;;;5053263;28;20454;-90
2021/11/13 11:43:14;;;;;;;18.92;3.70;;;14.80;99.90;;;;;;5051522;28;20032;-90
2021/11/13 11:45:42;;;;;;;18.77;3.60;;;14.60;99.90;;;;;;5051336;28;20074;-90
2021/11/13 11:48:15;;;;;;;18.98;3.33;;;14.40;99.90;;;;;;5071571;28;20024;-91
2021/11/13 11:50:43;;;;;;;17.85;3.50;;;14.40;99.90;;;;;;5064883;28;20195;-90
2021/11/13 11:53:13;;;;;;;22.02;3.80;;;14.40;99.90;;;;;;5071565;28;20035;-91
2021/11/13 11:55:44;;;;;;;17.45;3.50;;;14.50;99.90;;;;;;5054169;28;20506;-90
2021/11/13 11:58:16;;;;;;;14.55;2.25;;;14.50;99.90;;;;;;5054418;28;20024;-88
2021/11/13 12:00:44;;;;;;;23.38;2.78;;;14.70;99.90;;;;;;5071773;28;20025;-88
2021/11/13 12:03:26;;;;;;;23.00;3.00;;;14.80;99.90;;;;;;5071861;28;20028;-87
2021/11/13 12:05:54;;;;;;;17.73;2.55;;;14.70;99.90;;;;;;5071673;28;20412;-89
2021/11/13 12:08:24;;;;;;;13.93;2.25;;;15.00;99.90;;;;;;5062450;28;20179;-87
2021/11/13 12:10:50;;;;;;;13.27;2.00;;;15.10;99.90;;;;;;5055655;28;20053;-88
2021/11/13 12:13:29;;;;;;;12.40;1.80;;;15.00;99.90;;;;;;5062146;28;20013;-88
2021/11/13 12:15:59;;;;;;;10.82;1.65;;;15.00;99.90;;;;;;5051063;28;20100;-92
2021/11/13 12:18:43;;;;;;;15.80;2.17;;;15.10;99.90;;;;;;5051643;28;20535;-89
2021/11/13 12:21:14;;;;;;;12.20;2.35;;;15.10;99.90;;;;;;5034694;28;20024;-93
2021/11/13 12:23:43;;;;;;;10.57;1.70;;;15.20;99.90;;;;;;5047450;28;20021;-88
2021/11/13 12:26:32;;;;;;;8.68;1.42;;;15.20;99.90;;;;;;5052434;28;20025;-93
2021/11/13 12:29:01;;;;;;;9.55;1.80;;;15.20;99.90;;;;;;5037283;28;20052;-89
2021/11/13 12:31:39;;;;;;;8.50;1.60;;;15.40;99.90;;;;;;5033371;28;20114;-89
2021/11/13 12:34:08;;;;;;;13.50;1.65;;;15.60;99.90;;;;;;5053777;28;20272;-88
2021/11/13 12:37:00;;;;;;;13.20;1.40;;;15.60;99.90;;;;;;5054090;28;20124;-90
2021/11/13 12:39:28;;;;;;;7.47;1.73;;;15.40;99.90;;;;;;5053992;28;20029;-88